sensor_id;sensor_type;location;lat;lon;timestamp;P1;durP1;ratioP1;P2;durP2;ratioP2
75603;SDS011;64187;51.010;13.792;2022-12-18T00:03:42;21.92;;;10.60;;
75603;SDS011;64187;51.010;13.792;2022-12-18T00:08:45;21.08;;;8.88;;
75603;SDS011;64187;51.010;13.792;2022-12-18T00:13:44;18.67;;;10.00;;
75603;SDS011;64187;51.010;13.792;2022-12-18T00:18:44;22.75;;;10.88;;
75603;SDS011;64187;51.010;13.792;2022-12-18T00:23:43;20.23;;;9.20;;
75603;SDS011;64187;51.010;13.792;2022-12-18T00:28:43;19.95;;;9.63;;
75603;SDS011;64187;51.010;13.792;2022-12-18T00:33:43;17.17;;;8.23;;
75603;SDS011;64187;51.010;13.792;2022-12-18T00:38:43;21.17;;;9.52;;
75603;SDS011;64187;51.010;13.792;2022-12-18T00:43:42;16.27;;;8.57;;
75603;SDS011;64187;51.010;13.792;2022-12-18T00:48:41;19.50;;;8.38;;
75603;SDS011;64187;51.010;13.792;2022-12-18T00:53:40;17.85;;;8.45;;
75603;SDS011;64187;51.010;13.792;2022-12-18T00:58:39;18.55;;;8.05;;
75603;SDS011;64187;51.010;13.792;2022-12-18T01:03:38;19.95;;;7.90;;
75603;SDS011;64187;51.010;13.792;2022-12-18T01:08:38;18.48;;;8.93;;
75603;SDS011;64187;51.010;13.792;2022-12-18T01:13:37;19.30;;;8.00;;
75603;SDS011;64187;51.010;13.792;2022-12-18T01:18:37;22.05;;;9.05;;
75603;SDS011;64187;51.010;13.792;2022-12-18T01:23:36;18.13;;;8.98;;
75603;SDS011;64187;51.010;13.792;2022-12-18T01:28:36;19.95;;;8.82;;
75603;SDS011;64187;51.010;13.792;2022-12-18T01:33:36;16.08;;;7.97;;
75603;SDS011;64187;51.010;13.792;2022-12-18T01:38:37;15.50;;;8.07;;
75603;SDS011;64187;51.010;13.792;2022-12-18T01:43:50;18.02;;;8.65;;
75603;SDS011;64187;51.010;13.792;2022-12-18T01:48:51;15.10;;;6.88;;
75603;SDS011;64187;51.010;13.792;2022-12-18T01:53:55;19.77;;;8.50;;
75603;SDS011;64187;51.010;13.792;2022-12-18T02:04:20;18.48;;;8.25;;
75603;SDS011;64187;51.010;13.792;2022-12-18T02:09:23;15.82;;;8.00;;
75603;SDS011;64187;51.010;13.792;2022-12-18T02:20:01;14.80;;;8.00;;
75603;SDS011;64187;51.010;13.792;2022-12-18T02:25:19;21.73;;;9.07;;
75603;SDS011;64187;51.010;13.792;2022-12-18T02:30:38;15.20;;;7.03;;
75603;SDS011;64187;51.010;13.792;2022-12-18T02:35:39;18.40;;;6.60;;
75603;SDS011;64187;51.010;13.792;2022-12-18T02:40:40;13.23;;;6.00;;
75603;SDS011;64187;51.010;13.792;2022-12-18T02:45:47;15.50;;;6.68;;
75603;SDS011;64187;51.010;13.792;2022-12-18T02:51:00;19.65;;;7.90;;
75603;SDS011;64187;51.010;13.792;2022-12-18T02:56:07;14.43;;;6.70;;
75603;SDS011;64187;51.010;13.792;2022-12-18T03:06:32;15.98;;;7.57;;
75603;SDS011;64187;51.010;13.792;2022-12-18T03:11:36;15.18;;;6.47;;
75603;SDS011;64187;51.010;13.792;2022-12-18T03:16:58;13.25;;;6.30;;
75603;SDS011;64187;51.010;13.792;2022-12-18T03:22:01;11.57;;;6.15;;
75603;SDS011;64187;51.010;13.792;2022-12-18T03:27:13;10.07;;;6.72;;
75603;SDS011;64187;51.010;13.792;2022-12-18T03:32:21;15.63;;;7.00;;
75603;SDS011;64187;51.010;13.792;2022-12-18T03:37:25;16.42;;;6.63;;
75603;SDS011;64187;51.010;13.792;2022-12-18T03:48:02;13.43;;;6.72;;
75603;SDS011;64187;51.010;13.792;2022-12-18T03:58:28;11.05;;;5.03;;
75603;SDS011;64187;51.010;13.792;2022-12-18T04:03:46;10.88;;;4.47;;
75603;SDS011;64187;51.010;13.792;2022-12-18T04:08:50;10.45;;;4.75;;
75603;SDS011;64187;51.010;13.792;2022-12-18T04:13:55;9.93;;;5.40;;
75603;SDS011;64187;51.010;13.792;2022-12-18T04:18:55;13.95;;;3.97;;
75603;SDS011;64187;51.010;13.792;2022-12-18T04:23:57;14.20;;;6.05;;
75603;SDS011;64187;51.010;13.792;2022-12-18T04:28:56;9.45;;;4.30;;
75603;SDS011;64187;51.010;13.792;2022-12-18T04:33:55;8.50;;;4.82;;
75603;SDS011;64187;51.010;13.792;2022-12-18T04:38:54;10.45;;;4.72;;
75603;SDS011;64187;51.010;13.792;2022-12-18T04:43:54;13.07;;;5.50;;
75603;SDS011;64187;51.010;13.792;2022-12-18T04:48:53;6.88;;;2.90;;
75603;SDS011;64187;51.010;13.792;2022-12-18T04:53:51;8.60;;;3.63;;
75603;SDS011;64187;51.010;13.792;2022-12-18T04:58:51;11.82;;;4.20;;
75603;SDS011;64187;51.010;13.792;2022-12-18T05:03:50;8.15;;;3.80;;
75603;SDS011;64187;51.010;13.792;2022-12-18T05:08:50;6.68;;;2.78;;
75603;SDS011;64187;51.010;13.792;2022-12-18T05:13:49;7.47;;;4.22;;
75603;SDS011;64187;51.010;13.792;2022-12-18T05:18:47;6.57;;;3.42;;
75603;SDS011;64187;51.010;13.792;2022-12-18T05:23:46;5.35;;;3.63;;
75603;SDS011;64187;51.010;13.792;2022-12-18T05:28:45;7.85;;;4.30;;
75603;SDS011;64187;51.010;13.792;2022-12-18T05:33:44;8.75;;;3.70;;
75603;SDS011;64187;51.010;13.792;2022-12-18T05:38:46;9.05;;;3.95;;
75603;SDS011;64187;51.010;13.792;2022-12-18T05:43:45;9.18;;;3.65;;
75603;SDS011;64187;51.010;13.792;2022-12-18T05:48:44;6.60;;;4.00;;
75603;SDS011;64187;51.010;13.792;2022-12-18T05:53:43;10.25;;;3.95;;
75603;SDS011;64187;51.010;13.792;2022-12-18T05:58:43;8.75;;;3.00;;
75603;SDS011;64187;51.010;13.792;2022-12-18T06:03:42;5.22;;;2.85;;
75603;SDS011;64187;51.010;13.792;2022-12-18T06:08:41;9.32;;;3.63;;
75603;SDS011;64187;51.010;13.792;2022-12-18T06:13:44;7.18;;;2.88;;
75603;SDS011;64187;51.010;13.792;2022-12-18T06:18:43;5.72;;;3.42;;
75603;SDS011;64187;51.010;13.792;2022-12-18T06:23:42;7.50;;;2.92;;
75603;SDS011;64187;51.010;13.792;2022-12-18T06:28:42;6.90;;;3.47;;
75603;SDS011;64187;51.010;13.792;2022-12-18T06:33:41;10.30;;;4.60;;
75603;SDS011;64187;51.010;13.792;2022-12-18T06:38:42;5.78;;;3.28;;
75603;SDS011;64187;51.010;13.792;2022-12-18T06:43:42;8.23;;;3.10;;
75603;SDS011;64187;51.010;13.792;2022-12-18T06:48:41;10.43;;;3.35;;
75603;SDS011;64187;51.010;13.792;2022-12-18T06:53:40;10.98;;;4.40;;
75603;SDS011;64187;51.010;13.792;2022-12-18T06:58:40;8.45;;;3.50;;
75603;SDS011;64187;51.010;13.792;2022-12-18T07:03:39;8.32;;;3.60;;
75603;SDS011;64187;51.010;13.792;2022-12-18T07:08:40;8.85;;;5.07;;
75603;SDS011;64187;51.010;13.792;2022-12-18T07:13:39;11.38;;;4.20;;
75603;SDS011;64187;51.010;13.792;2022-12-18T07:18:38;6.75;;;3.50;;
75603;SDS011;64187;51.010;13.792;2022-12-18T07:23:37;6.70;;;3.10;;
75603;SDS011;64187;51.010;13.792;2022-12-18T07:28:37;6.30;;;3.95;;
75603;SDS011;64187;51.010;13.792;2022-12-18T07:33:38;12.27;;;4.82;;
75603;SDS011;64187;51.010;13.792;2022-12-18T07:38:37;14.52;;;4.25;;
75603;SDS011;64187;51.010;13.792;2022-12-18T07:43:36;7.18;;;4.38;;
75603;SDS011;64187;51.010;13.792;2022-12-18T07:48:36;7.18;;;4.50;;
75603;SDS011;64187;51.010;13.792;2022-12-18T07:53:35;9.63;;;4.93;;
75603;SDS011;64187;51.010;13.792;2022-12-18T07:58:35;13.52;;;5.47;;
75603;SDS011;64187;51.010;13.792;2022-12-18T08:03:35;11.88;;;5.55;;
75603;SDS011;64187;51.010;13.792;2022-12-18T08:08:37;10.15;;;4.15;;
75603;SDS011;64187;51.010;13.792;2022-12-18T08:13:36;13.07;;;7.13;;
75603;SDS011;64187;51.010;13.792;2022-12-18T08:18:35;4.90;;;1.60;;
75603;SDS011;64187;51.010;13.792;2022-12-18T08:23:35;28.80;;;15.63;;
75603;SDS011;64187;51.010;13.792;2022-12-18T08:28:40;18.08;;;9.07;;
75603;SDS011;64187;51.010;13.792;2022-12-18T08:33:40;24.02;;;9.88;;
75603;SDS011;64187;51.010;13.792;2022-12-18T08:38:40;21.92;;;9.23;;
75603;SDS011;64187;51.010;13.792;2022-12-18T08:43:39;18.02;;;10.13;;
75603;SDS011;64187;51.010;13.792;2022-12-18T08:48:57;16.55;;;8.23;;
75603;SDS011;64187;51.010;13.792;2022-12-18T08:53:56;19.63;;;9.93;;
75603;SDS011;64187;51.010;13.792;2022-12-18T08:58:55;21.98;;;9.55;;
75603;SDS011;64187;51.010;13.792;2022-12-18T09:03:54;19.00;;;9.50;;
75603;SDS011;64187;51.010;13.792;2022-12-18T09:08:53;20.05;;;10.98;;
75603;SDS011;64187;51.010;13.792;2022-12-18T09:13:52;23.13;;;9.80;;
75603;SDS011;64187;51.010;13.792;2022-12-18T09:18:52;26.80;;;11.30;;
75603;SDS011;64187;51.010;13.792;2022-12-18T09:23:57;23.67;;;10.98;;
75603;SDS011;64187;51.010;13.792;2022-12-18T09:28:56;25.25;;;11.05;;
75603;SDS011;64187;51.010;13.792;2022-12-18T09:33:55;30.52;;;13.38;;
75603;SDS011;64187;51.010;13.792;2022-12-18T09:38:55;27.75;;;13.30;;
75603;SDS011;64187;51.010;13.792;2022-12-18T09:43:56;27.38;;;11.88;;
75603;SDS011;64187;51.010;13.792;2022-12-18T09:49:01;26.38;;;12.85;;
75603;SDS011;64187;51.010;13.792;2022-12-18T09:54:20;28.20;;;12.75;;
75603;SDS011;64187;51.010;13.792;2022-12-18T09:59:34;27.90;;;12.77;;
75603;SDS011;64187;51.010;13.792;2022-12-18T10:04:35;24.45;;;10.73;;
75603;SDS011;64187;51.010;13.792;2022-12-18T10:09:37;27.65;;;11.68;;
75603;SDS011;64187;51.010;13.792;2022-12-18T10:20:39;22.45;;;10.30;;
75603;SDS011;64187;51.010;13.792;2022-12-18T10:31:27;28.30;;;11.43;;
75603;SDS011;64187;51.010;13.792;2022-12-18T10:36:24;28.75;;;10.43;;
75603;SDS011;64187;51.010;13.792;2022-12-18T10:41:24;26.60;;;11.77;;
75603;SDS011;64187;51.010;13.792;2022-12-18T10:46:26;25.65;;;12.07;;
75603;SDS011;64187;51.010;13.792;2022-12-18T10:51:33;27.95;;;11.57;;
75603;SDS011;64187;51.010;13.792;2022-12-18T10:56:35;31.45;;;12.68;;
75603;SDS011;64187;51.010;13.792;2022-12-18T11:11:58;33.40;;;14.25;;
75603;SDS011;64187;51.010;13.792;2022-12-18T11:16:59;26.67;;;10.52;;
75603;SDS011;64187;51.010;13.792;2022-12-18T11:27:19;28.98;;;12.95;;
75603;SDS011;64187;51.010;13.792;2022-12-18T11:32:27;27.60;;;11.82;;
75603;SDS011;64187;51.010;13.792;2022-12-18T11:37:32;21.67;;;10.52;;
75603;SDS011;64187;51.010;13.792;2022-12-18T11:42:35;25.33;;;10.95;;
75603;SDS011;64187;51.010;13.792;2022-12-18T11:47:43;22.27;;;10.07;;
75603;SDS011;64187;51.010;13.792;2022-12-18T11:52:47;27.25;;;11.95;;
75603;SDS011;64187;51.010;13.792;2022-12-18T11:58:05;22.48;;;10.93;;
75603;SDS011;64187;51.010;13.792;2022-12-18T12:14:03;24.63;;;9.48;;
75603;SDS011;64187;51.010;13.792;2022-12-18T12:24:57;27.45;;;10.45;;
75603;SDS011;64187;51.010;13.792;2022-12-18T12:46:00;21.70;;;9.52;;
75603;SDS011;64187;51.010;13.792;2022-12-18T12:56:20;29.35;;;11.70;;
75603;SDS011;64187;51.010;13.792;2022-12-18T13:01:25;24.38;;;10.82;;
75603;SDS011;64187;51.010;13.792;2022-12-18T13:12:01;22.15;;;11.40;;
75603;SDS011;64187;51.010;13.792;2022-12-18T13:22:22;20.98;;;11.32;;
75603;SDS011;64187;51.010;13.792;2022-12-18T13:32:41;24.52;;;10.90;;
75603;SDS011;64187;51.010;13.792;2022-12-18T13:37:43;21.15;;;10.65;;
75603;SDS011;64187;51.010;13.792;2022-12-18T13:42:49;28.30;;;14.02;;
75603;SDS011;64187;51.010;13.792;2022-12-18T13:48:14;30.05;;;11.57;;
75603;SDS011;64187;51.010;13.792;2022-12-18T13:53:18;21.10;;;8.88;;
75603;SDS011;64187;51.010;13.792;2022-12-18T13:58:20;21.13;;;9.73;;
75603;SDS011;64187;51.010;13.792;2022-12-18T14:03:24;20.75;;;11.00;;
75603;SDS011;64187;51.010;13.792;2022-12-18T14:08:25;15.68;;;7.57;;
75603;SDS011;64187;51.010;13.792;2022-12-18T14:13:31;19.33;;;8.57;;
75603;SDS011;64187;51.010;13.792;2022-12-18T14:18:48;20.13;;;8.68;;
75603;SDS011;64187;51.010;13.792;2022-12-18T14:24:04;18.65;;;7.65;;
75603;SDS011;64187;51.010;13.792;2022-12-18T14:29:20;16.65;;;8.15;;
75603;SDS011;64187;51.010;13.792;2022-12-18T14:34:21;19.48;;;8.23;;
75603;SDS011;64187;51.010;13.792;2022-12-18T14:39:24;21.23;;;9.63;;
75603;SDS011;64187;51.010;13.792;2022-12-18T14:44:24;17.40;;;7.47;;
75603;SDS011;64187;51.010;13.792;2022-12-18T14:49:32;20.27;;;10.13;;
75603;SDS011;64187;51.010;13.792;2022-12-18T14:54:34;22.80;;;10.13;;
75603;SDS011;64187;51.010;13.792;2022-12-18T14:59:35;15.70;;;7.57;;
75603;SDS011;64187;51.010;13.792;2022-12-18T15:04:35;25.95;;;10.00;;
75603;SDS011;64187;51.010;13.792;2022-12-18T15:09:40;22.80;;;8.75;;
75603;SDS011;64187;51.010;13.792;2022-12-18T15:14:41;21.92;;;9.75;;
75603;SDS011;64187;51.010;13.792;2022-12-18T15:19:41;21.90;;;9.88;;
75603;SDS011;64187;51.010;13.792;2022-12-18T15:24:41;21.95;;;8.88;;
75603;SDS011;64187;51.010;13.792;2022-12-18T15:29:40;16.98;;;8.07;;
75603;SDS011;64187;51.010;13.792;2022-12-18T15:34:39;26.25;;;10.30;;
75603;SDS011;64187;51.010;13.792;2022-12-18T15:39:38;21.48;;;8.18;;
75603;SDS011;64187;51.010;13.792;2022-12-18T15:44:37;11.85;;;6.03;;
75603;SDS011;64187;51.010;13.792;2022-12-18T15:49:36;16.83;;;7.80;;
75603;SDS011;64187;51.010;13.792;2022-12-18T15:54:35;24.30;;;9.48;;
75603;SDS011;64187;51.010;13.792;2022-12-18T15:59:55;21.63;;;8.77;;
75603;SDS011;64187;51.010;13.792;2022-12-18T16:04:57;17.95;;;7.80;;
75603;SDS011;64187;51.010;13.792;2022-12-18T16:09:55;17.45;;;8.93;;
75603;SDS011;64187;51.010;13.792;2022-12-18T16:14:56;16.10;;;7.32;;
75603;SDS011;64187;51.010;13.792;2022-12-18T16:19:55;19.65;;;8.30;;
75603;SDS011;64187;51.010;13.792;2022-12-18T16:24:54;20.88;;;8.38;;
75603;SDS011;64187;51.010;13.792;2022-12-18T16:29:54;16.60;;;9.38;;
75603;SDS011;64187;51.010;13.792;2022-12-18T16:34:53;24.25;;;9.55;;
75603;SDS011;64187;51.010;13.792;2022-12-18T16:39:58;27.05;;;10.50;;
75603;SDS011;64187;51.010;13.792;2022-12-18T16:44:57;20.73;;;9.70;;
75603;SDS011;64187;51.010;13.792;2022-12-18T16:49:56;20.73;;;8.48;;
75603;SDS011;64187;51.010;13.792;2022-12-18T16:54:55;18.60;;;7.85;;
75603;SDS011;64187;51.010;13.792;2022-12-18T16:59:54;16.85;;;7.53;;
75603;SDS011;64187;51.010;13.792;2022-12-18T17:05:02;22.52;;;8.77;;
75603;SDS011;64187;51.010;13.792;2022-12-18T17:10:01;16.77;;;8.27;;
75603;SDS011;64187;51.010;13.792;2022-12-18T17:15:00;17.20;;;8.90;;
75603;SDS011;64187;51.010;13.792;2022-12-18T17:19:59;23.67;;;9.60;;
75603;SDS011;64187;51.010;13.792;2022-12-18T17:24:58;16.13;;;7.82;;
75603;SDS011;64187;51.010;13.792;2022-12-18T17:29:56;25.13;;;10.63;;
75603;SDS011;64187;51.010;13.792;2022-12-18T17:34:55;17.33;;;8.05;;
75603;SDS011;64187;51.010;13.792;2022-12-18T17:39:54;20.35;;;9.40;;
75603;SDS011;64187;51.010;13.792;2022-12-18T17:44:53;13.73;;;7.28;;
75603;SDS011;64187;51.010;13.792;2022-12-18T17:49:54;19.23;;;9.45;;
75603;SDS011;64187;51.010;13.792;2022-12-18T17:54:54;17.33;;;8.73;;
75603;SDS011;64187;51.010;13.792;2022-12-18T17:59:53;21.80;;;9.05;;
75603;SDS011;64187;51.010;13.792;2022-12-18T18:04:52;20.23;;;8.10;;
75603;SDS011;64187;51.010;13.792;2022-12-18T18:09:51;24.00;;;9.40;;
75603;SDS011;64187;51.010;13.792;2022-12-18T18:14:50;20.15;;;9.02;;
75603;SDS011;64187;51.010;13.792;2022-12-18T18:19:49;22.45;;;9.65;;
75603;SDS011;64187;51.010;13.792;2022-12-18T18:24:48;18.52;;;6.80;;
75603;SDS011;64187;51.010;13.792;2022-12-18T18:29:46;18.75;;;7.28;;
75603;SDS011;64187;51.010;13.792;2022-12-18T18:34:48;21.42;;;9.15;;
75603;SDS011;64187;51.010;13.792;2022-12-18T18:39:47;14.50;;;5.13;;
75603;SDS011;64187;51.010;13.792;2022-12-18T18:44:46;12.90;;;6.03;;
75603;SDS011;64187;51.010;13.792;2022-12-18T18:49:46;12.85;;;6.65;;
75603;SDS011;64187;51.010;13.792;2022-12-18T18:54:46;20.25;;;6.25;;
75603;SDS011;64187;51.010;13.792;2022-12-18T19:00:06;19.38;;;7.50;;
75603;SDS011;64187;51.010;13.792;2022-12-18T19:05:06;22.52;;;10.85;;
75603;SDS011;64187;51.010;13.792;2022-12-18T19:10:05;11.30;;;6.30;;
75603;SDS011;64187;51.010;13.792;2022-12-18T19:15:05;12.20;;;5.72;;
75603;SDS011;64187;51.010;13.792;2022-12-18T19:20:04;15.35;;;7.38;;
75603;SDS011;64187;51.010;13.792;2022-12-18T19:25:05;24.67;;;9.48;;
75603;SDS011;64187;51.010;13.792;2022-12-18T19:30:05;15.93;;;7.38;;
75603;SDS011;64187;51.010;13.792;2022-12-18T19:35:04;20.92;;;9.07;;
75603;SDS011;64187;51.010;13.792;2022-12-18T19:40:04;18.88;;;7.60;;
75603;SDS011;64187;51.010;13.792;2022-12-18T19:45:10;23.25;;;8.80;;
75603;SDS011;64187;51.010;13.792;2022-12-18T19:50:09;18.45;;;7.78;;
75603;SDS011;64187;51.010;13.792;2022-12-18T19:55:08;19.55;;;9.48;;
75603;SDS011;64187;51.010;13.792;2022-12-18T20:00:07;17.83;;;8.23;;
75603;SDS011;64187;51.010;13.792;2022-12-18T20:05:14;20.98;;;8.93;;
75603;SDS011;64187;51.010;13.792;2022-12-18T20:10:13;20.13;;;10.10;;
75603;SDS011;64187;51.010;13.792;2022-12-18T20:15:14;19.65;;;8.38;;
75603;SDS011;64187;51.010;13.792;2022-12-18T20:20:13;14.73;;;6.78;;
75603;SDS011;64187;51.010;13.792;2022-12-18T20:25:12;20.77;;;7.93;;
75603;SDS011;64187;51.010;13.792;2022-12-18T20:30:13;24.92;;;9.52;;
75603;SDS011;64187;51.010;13.792;2022-12-18T20:35:12;21.10;;;9.18;;
75603;SDS011;64187;51.010;13.792;2022-12-18T20:40:20;15.77;;;7.13;;
75603;SDS011;64187;51.010;13.792;2022-12-18T20:45:20;16.63;;;6.95;;
75603;SDS011;64187;51.010;13.792;2022-12-18T20:50:18;21.35;;;10.73;;
75603;SDS011;64187;51.010;13.792;2022-12-18T20:55:17;18.40;;;8.15;;
75603;SDS011;64187;51.010;13.792;2022-12-18T21:00:16;17.55;;;7.20;;
75603;SDS011;64187;51.010;13.792;2022-12-18T21:05:18;18.98;;;7.45;;
75603;SDS011;64187;51.010;13.792;2022-12-18T21:10:17;20.83;;;8.52;;
75603;SDS011;64187;51.010;13.792;2022-12-18T21:15:16;30.77;;;9.07;;
75603;SDS011;64187;51.010;13.792;2022-12-18T21:20:15;15.50;;;7.97;;
75603;SDS011;64187;51.010;13.792;2022-12-18T21:25:16;22.02;;;10.00;;
75603;SDS011;64187;51.010;13.792;2022-12-18T21:30:15;21.10;;;8.18;;
75603;SDS011;64187;51.010;13.792;2022-12-18T21:35:14;22.40;;;9.30;;
75603;SDS011;64187;51.010;13.792;2022-12-18T21:40:14;19.70;;;7.38;;
75603;SDS011;64187;51.010;13.792;2022-12-18T21:45:13;18.27;;;7.85;;
75603;SDS011;64187;51.010;13.792;2022-12-18T21:50:12;28.35;;;10.68;;
75603;SDS011;64187;51.010;13.792;2022-12-18T21:55:11;16.98;;;9.13;;
75603;SDS011;64187;51.010;13.792;2022-12-18T22:00:11;22.52;;;9.27;;
75603;SDS011;64187;51.010;13.792;2022-12-18T22:05:16;24.20;;;9.52;;
75603;SDS011;64187;51.010;13.792;2022-12-18T22:10:15;23.70;;;9.48;;
75603;SDS011;64187;51.010;13.792;2022-12-18T22:15:14;30.92;;;10.48;;
75603;SDS011;64187;51.010;13.792;2022-12-18T22:20:19;29.77;;;11.00;;
75603;SDS011;64187;51.010;13.792;2022-12-18T22:25:18;23.42;;;8.38;;
75603;SDS011;64187;51.010;13.792;2022-12-18T22:30:16;15.07;;;6.72;;
75603;SDS011;64187;51.010;13.792;2022-12-18T22:35:15;27.10;;;11.43;;
75603;SDS011;64187;51.010;13.792;2022-12-18T22:40:19;24.58;;;10.43;;
75603;SDS011;64187;51.010;13.792;2022-12-18T22:45:23;26.02;;;10.68;;
75603;SDS011;64187;51.010;13.792;2022-12-18T22:50:23;25.77;;;10.32;;
75603;SDS011;64187;51.010;13.792;2022-12-18T22:55:22;23.42;;;10.35;;
75603;SDS011;64187;51.010;13.792;2022-12-18T23:00:20;26.45;;;11.38;;
75603;SDS011;64187;51.010;13.792;2022-12-18T23:05:22;22.05;;;9.77;;
75603;SDS011;64187;51.010;13.792;2022-12-18T23:10:20;24.83;;;9.65;;
75603;SDS011;64187;51.010;13.792;2022-12-18T23:15:20;30.33;;;12.68;;
75603;SDS011;64187;51.010;13.792;2022-12-18T23:20:26;23.65;;;10.68;;
75603;SDS011;64187;51.010;13.792;2022-12-18T23:25:25;21.42;;;9.60;;
75603;SDS011;64187;51.010;13.792;2022-12-18T23:30:24;24.33;;;9.38;;
75603;SDS011;64187;51.010;13.792;2022-12-18T23:35:22;28.80;;;11.63;;
75603;SDS011;64187;51.010;13.792;2022-12-18T23:40:21;31.88;;;11.65;;
75603;SDS011;64187;51.010;13.792;2022-12-18T23:45:20;28.63;;;12.40;;
75603;SDS011;64187;51.010;13.792;2022-12-18T23:50:19;21.00;;;9.27;;
75603;SDS011;64187;51.010;13.792;2022-12-18T23:55:26;20.95;;;10.25;;
